Time;durP1;ratioP1;P1;durP2;ratioP2;P2;SDS_P1;SDS_P2;PMS_P1;PMS_P2;Temp;Humidity;BMP_temperature;BMP_pressure;BME280_temperature;BME280_humidity;BME280_pressure;Samples;Min_cycle;Max_cycle;Signal;HPM_P1;HPM_P2
2024/03/05 00:00:11;;;;;;;0.50;0.40;;;7.80;99.90;;;;;;5075585;28;20596;-79
2024/03/05 00:02:39;;;;;;;1.00;0.98;;;7.80;99.90;;;;;;5075120;28;20269;-79
2024/03/05 00:05:07;;;;;;;1.40;1.35;;;7.70;99.90;;;;;;5075536;28;20194;-79
2024/03/05 00:07:35;;;;;;;0.50;0.40;;;7.80;99.90;;;;;;5075478;28;20261;-79
2024/03/05 00:10:04;;;;;;;18.73;17.67;;;7.80;99.90;;;;;;5074996;28;20209;-79
2024/03/05 00:12:33;;;;;;;0.50;0.40;;;7.80;99.90;;;;;;5075260;28;20285;-80
2024/03/05 00:15:00;;;;;;;0.50;0.40;;;7.70;99.90;;;;;;5077597;28;20198;-80
2024/03/05 00:17:28;;;;;;;0.50;0.40;;;7.80;99.90;;;;;;5077286;28;20277;-80
2024/03/05 00:19:55;;;;;;;0.50;0.40;;;7.80;99.90;;;;;;5076622;28;20201;-80
2024/03/05 00:22:24;;;;;;;0.50;0.40;;;7.80;99.90;;;;;;5075743;28;20203;-80
2024/03/05 00:24:51;;;;;;;0.50;0.40;;;7.70;99.90;;;;;;5076590;28;20194;-80
2024/03/05 00:27:18;;;;;;;0.50;0.40;;;7.70;99.90;;;;;;5076872;28;20226;-81
2024/03/05 00:29:47;;;;;;;0.60;0.50;;;7.70;99.90;;;;;;5076924;28;20204;-80
2024/03/05 00:32:14;;;;;;;0.55;0.40;;;7.70;99.90;;;;;;5076812;28;20194;-80
2024/03/05 00:34:42;;;;;;;1.15;1.05;;;7.70;99.90;;;;;;5076743;28;20224;-80
2024/03/05 00:37:09;;;;;;;0.50;0.50;;;7.80;99.90;;;;;;5076710;28;20570;-80
2024/03/05 00:39:36;;;;;;;4.82;2.63;;;7.80;99.90;;;;;;5076829;28;20359;-80
2024/03/05 00:42:03;;;;;;;2.35;2.25;;;7.90;99.90;;;;;;5076368;28;20207;-80
2024/03/05 00:44:30;;;;;;;2.70;2.55;;;7.80;99.90;;;;;;5076738;28;20198;-80
2024/03/05 00:46:56;;;;;;;0.50;0.50;;;7.80;99.90;;;;;;5077002;28;20194;-80
2024/03/05 00:49:24;;;;;;;0.98;0.98;;;7.90;99.90;;;;;;5076591;28;20696;-80
2024/03/05 00:51:52;;;;;;;0.50;0.50;;;7.80;99.90;;;;;;5076294;28;20202;-80
2024/03/05 00:54:19;;;;;;;0.50;0.40;;;7.80;99.90;;;;;;5076525;28;20236;-79
2024/03/05 00:56:46;;;;;;;1.83;1.73;;;7.80;99.90;;;;;;5076382;28;20665;-81
2024/03/05 00:59:14;;;;;;;0.50;0.40;;;7.80;99.90;;;;;;5076481;28;20226;-81
2024/03/05 01:01:41;;;;;;;0.50;0.40;;;7.80;99.90;;;;;;5076691;28;20197;-80
2024/03/05 01:04:08;;;;;;;2.90;1.88;;;7.80;99.90;;;;;;5075853;28;20209;-80
2024/03/05 01:06:35;;;;;;;0.60;0.40;;;7.90;99.90;;;;;;5075789;28;20198;-80
2024/03/05 01:09:07;;;;;;;3.78;3.42;;;7.90;99.90;;;;;;5075993;28;20218;-80
2024/03/05 01:11:34;;;;;;;1.50;1.50;;;7.90;99.90;;;;;;5075844;28;20791;-80
2024/03/05 01:14:01;;;;;;;6.57;4.90;;;8.00;99.90;;;;;;5075502;28;20191;-79
2024/03/05 01:16:28;;;;;;;0.60;0.60;;;8.00;99.90;;;;;;5055638;28;20205;-80
2024/03/05 01:18:55;;;;;;;3.90;2.17;;;7.90;99.90;;;;;;5055725;28;20215;-80
2024/03/05 01:21:22;;;;;;;0.50;0.50;;;8.00;99.90;;;;;;5055751;28;20195;-80
2024/03/05 01:23:49;;;;;;;2.05;1.95;;;8.10;99.90;;;;;;5055886;28;20195;-80
2024/03/05 01:26:18;;;;;;;3.90;3.60;;;8.10;99.90;;;;;;5056950;28;20191;-80
2024/03/05 01:28:44;;;;;;;4.15;2.25;;;8.10;99.90;;;;;;5063945;28;20222;-78
2024/03/05 01:31:11;;;;;;;2.15;2.00;;;8.10;99.90;;;;;;5064058;28;20191;-78
2024/03/05 01:33:40;;;;;;;2.95;2.85;;;8.10;99.90;;;;;;5062996;28;20266;-79
2024/03/05 01:36:10;;;;;;;14.00;2.67;;;8.20;99.90;;;;;;5063467;28;20195;-78
2024/03/05 01:38:37;;;;;;;1.13;1.13;;;8.10;99.90;;;;;;5063660;28;20262;-78
2024/03/05 01:41:04;;;;;;;4.47;4.28;;;8.00;99.90;;;;;;5062345;28;20272;-80
2024/03/05 01:43:32;;;;;;;0.50;0.40;;;7.90;99.90;;;;;;5055830;28;20290;-80
2024/03/05 01:45:59;;;;;;;2.47;1.52;;;7.90;99.90;;;;;;5055635;28;20199;-81
2024/03/05 01:48:27;;;;;;;0.50;0.40;;;7.90;99.90;;;;;;5056093;28;20590;-80
2024/03/05 01:50:57;;;;;;;3.15;0.93;;;7.90;99.90;;;;;;5054648;28;20191;-80
2024/03/05 01:53:27;;;;;;;0.50;0.40;;;7.90;99.90;;;;;;5055340;28;20222;-80
2024/03/05 01:55:55;;;;;;;0.68;0.68;;;7.90;99.90;;;;;;5055925;28;20227;-80
2024/03/05 01:58:23;;;;;;;1.73;1.63;;;7.90;99.90;;;;;;5055108;28;20219;-80
2024/03/05 02:00:51;;;;;;;5.18;4.03;;;7.90;99.90;;;;;;5056073;28;20605;-80
2024/03/05 02:03:18;;;;;;;0.50;0.50;;;7.90;99.90;;;;;;5055476;28;20206;-79
2024/03/05 02:05:48;;;;;;;3.45;2.45;;;7.90;99.90;;;;;;5055450;28;20689;-80
2024/03/05 02:08:16;;;;;;;0.50;0.40;;;7.90;99.90;;;;;;5054972;28;20215;-80
2024/03/05 02:10:43;;;;;;;0.60;0.60;;;8.00;99.90;;;;;;5054978;28;20199;-80
2024/03/05 02:13:10;;;;;;;0.50;0.40;;;8.00;99.90;;;;;;5055182;28;20195;-80
2024/03/05 02:15:37;;;;;;;1.20;1.20;;;8.00;99.90;;;;;;5055453;28;20198;-80
2024/03/05 02:18:07;;;;;;;2.67;2.58;;;8.00;99.90;;;;;;5054894;28;20305;-80
2024/03/05 02:20:35;;;;;;;0.50;0.50;;;8.00;99.90;;;;;;5055426;28;20217;-81
2024/03/05 02:23:03;;;;;;;0.60;0.40;;;8.00;99.90;;;;;;5054008;28;20238;-78
2024/03/05 02:25:31;;;;;;;0.50;0.40;;;7.80;99.90;;;;;;5053338;28;20203;-79
2024/03/05 02:28:01;;;;;;;5.32;4.90;;;7.80;99.90;;;;;;5052813;28;20257;-80
2024/03/05 02:30:29;;;;;;;1.15;1.15;;;7.80;99.90;;;;;;5054482;28;20231;-78
2024/03/05 02:32:58;;;;;;;0.50;0.50;;;7.80;99.90;;;;;;5052802;28;20194;-78
2024/03/05 02:35:24;;;;;;;0.50;0.40;;;7.80;99.90;;;;;;5052846;28;20288;-79
2024/03/05 02:37:51;;;;;;;6.47;5.20;;;7.90;99.90;;;;;;5052374;28;20219;-78
2024/03/05 02:40:19;;;;;;;0.50;0.40;;;7.90;99.90;;;;;;5052446;28;20210;-79
2024/03/05 02:42:46;;;;;;;0.80;0.80;;;7.90;99.90;;;;;;5052596;28;20199;-79
2024/03/05 02:45:15;;;;;;;0.50;0.40;;;7.90;99.90;;;;;;5052158;28;20191;-79
2024/03/05 02:47:43;;;;;;;0.50;0.40;;;7.80;99.90;;;;;;5052396;28;20218;-79
2024/03/05 02:50:11;;;;;;;0.50;0.40;;;7.80;99.90;;;;;;5052152;28;20206;-79
2024/03/05 02:52:38;;;;;;;0.60;0.60;;;7.80;99.90;;;;;;5052326;28;20406;-80
2024/03/05 02:55:09;;;;;;;1.95;1.85;;;7.80;99.90;;;;;;5052698;28;20191;-79
2024/03/05 02:57:38;;;;;;;0.50;0.40;;;7.80;99.90;;;;;;5052767;28;20272;-79
2024/03/05 03:00:09;;;;;;;0.50;0.40;;;7.80;99.90;;;;;;5057269;28;20199;-80
2024/03/05 03:02:37;;;;;;;0.50;0.40;;;7.80;99.90;;;;;;5054907;28;20191;-80
2024/03/05 03:05:05;;;;;;;0.50;0.40;;;7.80;99.90;;;;;;5056249;28;20195;-78
2024/03/05 03:07:32;;;;;;;0.50;0.40;;;7.80;99.90;;;;;;5057816;28;20288;-78
2024/03/05 03:09:59;;;;;;;0.50;0.40;;;7.90;99.90;;;;;;5058066;28;20202;-79
2024/03/05 03:12:26;;;;;;;0.50;0.40;;;7.90;99.90;;;;;;5056643;28;20198;-79
2024/03/05 03:14:56;;;;;;;0.50;0.40;;;7.90;99.90;;;;;;5056255;28;20662;-80
2024/03/05 03:17:24;;;;;;;0.50;0.40;;;7.90;99.90;;;;;;5056893;28;20222;-78
2024/03/05 03:19:51;;;;;;;0.50;0.40;;;7.90;99.90;;;;;;5055544;28;20198;-80
2024/03/05 03:22:18;;;;;;;0.50;0.40;;;7.90;99.90;;;;;;5054260;28;20206;-80
2024/03/05 03:24:44;;;;;;;0.50;0.40;;;7.80;99.90;;;;;;5054585;28;20198;-80
2024/03/05 03:27:12;;;;;;;0.50;0.40;;;7.80;99.90;;;;;;5054100;28;20721;-80
2024/03/05 03:29:40;;;;;;;0.50;0.50;;;7.80;99.90;;;;;;5053612;28;20621;-80
2024/03/05 03:32:10;;;;;;;0.60;0.40;;;7.70;99.90;;;;;;5053731;28;20195;-80
2024/03/05 03:34:41;;;;;;;1.00;1.00;;;7.60;99.90;;;;;;5053581;28;20199;-80
2024/03/05 03:37:09;;;;;;;0.70;0.70;;;7.50;99.90;;;;;;5053981;28;20775;-80
2024/03/05 03:39:35;;;;;;;0.55;0.55;;;7.50;99.90;;;;;;5053961;28;20637;-80
2024/03/05 03:42:02;;;;;;;0.50;0.40;;;7.40;99.90;;;;;;5053846;28;20578;-80
2024/03/05 03:44:29;;;;;;;0.50;0.50;;;7.30;99.90;;;;;;5053582;28;20207;-80
2024/03/05 03:46:55;;;;;;;0.50;0.47;;;7.20;99.90;;;;;;5052254;28;20191;-80
2024/03/05 03:49:25;;;;;;;0.50;0.40;;;7.10;99.90;;;;;;5052677;28;20191;-79
2024/03/05 03:51:53;;;;;;;0.50;0.40;;;7.00;99.90;;;;;;5052704;28;20201;-79
2024/03/05 03:54:20;;;;;;;0.50;0.40;;;6.90;99.90;;;;;;5052757;28;20196;-79
2024/03/05 03:56:48;;;;;;;0.50;0.50;;;6.90;99.90;;;;;;5055263;28;20229;-78
2024/03/05 03:59:16;;;;;;;0.70;0.70;;;6.80;99.90;;;;;;5056173;28;20223;-79
2024/03/05 04:01:46;;;;;;;0.50;0.40;;;6.80;99.90;;;;;;5056511;28;20195;-79
2024/03/05 04:04:13;;;;;;;0.50;0.40;;;6.70;99.90;;;;;;5056292;28;20235;-79
2024/03/05 04:06:42;;;;;;;0.50;0.40;;;6.60;99.90;;;;;;5056450;28;20199;-79
2024/03/05 04:09:13;;;;;;;0.50;0.40;;;6.60;99.90;;;;;;5055878;28;20701;-80
2024/03/05 04:11:41;;;;;;;0.70;0.70;;;6.60;99.90;;;;;;5056038;28;20269;-79
2024/03/05 04:14:09;;;;;;;0.50;0.40;;;6.50;99.90;;;;;;5056044;28;20231;-79
2024/03/05 04:16:39;;;;;;;0.50;0.40;;;6.50;99.90;;;;;;5056218;28;20282;-78
2024/03/05 04:19:07;;;;;;;2.75;2.55;;;6.40;99.90;;;;;;5055744;28;20290;-79
2024/03/05 04:21:34;;;;;;;0.50;0.47;;;6.40;99.90;;;;;;5056155;28;20225;-80
2024/03/05 04:24:02;;;;;;;0.50;0.40;;;6.40;99.90;;;;;;5056024;28;20199;-80
2024/03/05 04:26:29;;;;;;;1.15;1.05;;;6.30;99.90;;;;;;5055375;28;20218;-80
2024/03/05 04:29:00;;;;;;;0.70;0.70;;;6.30;99.90;;;;;;5056039;28;20571;-79
2024/03/05 04:31:30;;;;;;;0.50;0.40;;;6.30;99.90;;;;;;5055600;28;20286;-79
2024/03/05 04:34:00;;;;;;;0.50;0.40;;;6.20;99.90;;;;;;5055223;28;20212;-79
2024/03/05 04:36:27;;;;;;;3.00;2.90;;;6.20;99.90;;;;;;5055101;28;20291;-80
2024/03/05 04:38:54;;;;;;;3.60;3.25;;;6.20;99.90;;;;;;5054782;28;20243;-79
2024/03/05 04:41:22;;;;;;;1.60;1.50;;;6.20;99.90;;;;;;5054867;28;20203;-78
2024/03/05 04:43:49;;;;;;;4.20;2.25;;;6.30;99.90;;;;;;5054815;28;20199;-78
2024/03/05 04:46:15;;;;;;;0.50;0.50;;;6.30;99.90;;;;;;5054952;28;20223;-78
2024/03/05 04:48:42;;;;;;;0.50;0.40;;;6.30;99.90;;;;;;5054784;28;20558;-78
2024/03/05 04:51:09;;;;;;;0.50;0.40;;;6.30;99.90;;;;;;5054744;28;20573;-78
2024/03/05 04:53:36;;;;;;;0.50;0.40;;;6.30;99.90;;;;;;5054984;28;20196;-78
2024/03/05 04:56:03;;;;;;;0.50;0.50;;;6.30;99.90;;;;;;5054701;28;20241;-78
2024/03/05 04:58:31;;;;;;;0.50;0.40;;;6.30;99.90;;;;;;5054670;28;20223;-78
2024/03/05 05:00:58;;;;;;;0.50;0.40;;;6.40;99.90;;;;;;5055410;28;20199;-78
2024/03/05 05:03:26;;;;;;;0.50;0.50;;;6.40;99.90;;;;;;5052973;28;20689;-79
2024/03/05 05:05:53;;;;;;;0.50;0.40;;;6.50;99.90;;;;;;5054368;28;20673;-79
2024/03/05 05:08:20;;;;;;;0.50;0.40;;;6.50;99.90;;;;;;5053798;28;20242;-79
2024/03/05 05:10:47;;;;;;;0.50;0.40;;;6.50;99.90;;;;;;5054610;28;20205;-81
2024/03/05 05:13:14;;;;;;;0.50;0.50;;;6.60;99.90;;;;;;5054131;28;20589;-80
2024/03/05 05:15:43;;;;;;;0.95;0.95;;;6.70;99.90;;;;;;5054565;28;20286;-80
2024/03/05 05:18:13;;;;;;;0.50;0.40;;;6.80;99.90;;;;;;5054191;28;20222;-80
2024/03/05 05:20:41;;;;;;;1.05;1.05;;;6.80;99.90;;;;;;5056306;28;20202;-79
2024/03/05 05:23:08;;;;;;;0.50;0.40;;;6.80;99.90;;;;;;5055942;28;20639;-78
2024/03/05 05:25:34;;;;;;;0.60;0.40;;;6.80;99.90;;;;;;5055280;28;20641;-80
2024/03/05 05:28:00;;;;;;;0.60;0.60;;;6.90;99.90;;;;;;5054709;28;20594;-80
2024/03/05 05:30:27;;;;;;;2.67;2.57;;;6.90;99.90;;;;;;5055178;28;20194;-81
2024/03/05 05:32:55;;;;;;;0.70;0.60;;;7.00;99.90;;;;;;5062774;28;20457;-80
2024/03/05 05:35:24;;;;;;;0.50;0.40;;;7.00;99.90;;;;;;5066669;28;20718;-80
2024/03/05 05:37:51;;;;;;;0.50;0.40;;;7.10;99.90;;;;;;5075096;28;20276;-81
2024/03/05 05:40:20;;;;;;;0.50;0.40;;;7.10;99.90;;;;;;5064391;28;20214;-80
2024/03/05 05:42:49;;;;;;;0.50;0.40;;;7.20;99.90;;;;;;5061919;28;20191;-80
2024/03/05 05:45:15;;;;;;;0.50;0.40;;;7.20;99.90;;;;;;5058148;28;20190;-80
2024/03/05 05:47:50;;;;;;;0.50;0.40;;;7.20;99.90;;;;;;5075362;28;20218;-79
2024/03/05 05:50:19;;;;;;;0.50;0.40;;;7.20;99.90;;;;;;5056248;28;20193;-80
2024/03/05 05:52:48;;;;;;;0.50;0.40;;;7.20;99.90;;;;;;5055097;28;20195;-81
2024/03/05 05:55:15;;;;;;;0.50;0.40;;;7.30;99.90;;;;;;5072689;28;20684;-80
2024/03/05 05:57:46;;;;;;;0.50;0.40;;;7.30;99.90;;;;;;5074768;28;20263;-81
2024/03/05 06:00:22;;;;;;;0.50;0.40;;;7.30;99.90;;;;;;5075029;28;20600;-81
2024/03/05 06:02:54;;;;;;;0.50;0.40;;;7.30;99.90;;;;;;5074209;28;20713;-81
2024/03/05 06:05:25;;;;;;;0.50;0.45;;;7.30;99.90;;;;;;5075672;28;20588;-83
2024/03/05 06:07:55;;;;;;;0.50;0.40;;;7.30;99.90;;;;;;5075495;28;20233;-84
2024/03/05 06:10:23;;;;;;;0.50;0.40;;;7.30;99.90;;;;;;5063830;28;20187;-82
2024/03/05 06:12:49;;;;;;;0.50;0.40;;;7.30;99.90;;;;;;5056074;28;20227;-83
2024/03/05 06:15:18;;;;;;;0.50;0.40;;;7.30;99.90;;;;;;5073172;28;20681;-84
2024/03/05 06:17:45;;;;;;;4.80;2.28;;;7.30;99.90;;;;;;5075159;28;20218;-84
2024/03/05 06:20:14;;;;;;;3.30;3.10;;;7.30;99.90;;;;;;5074181;28;20242;-84
2024/03/05 06:22:43;;;;;;;0.50;0.40;;;7.30;99.90;;;;;;5073601;28;20194;-83
2024/03/05 06:25:13;;;;;;;0.50;0.40;;;7.40;99.90;;;;;;5075135;28;20216;-84
2024/03/05 06:27:40;;;;;;;2.47;1.95;;;7.40;99.90;;;;;;5075047;28;20578;-84
2024/03/05 06:30:15;;;;;;;0.50;0.50;;;7.40;99.90;;;;;;5065815;28;20225;-84
2024/03/05 06:32:47;;;;;;;0.50;0.40;;;7.40;99.90;;;;;;5074648;28;20292;-83
2024/03/05 06:35:14;;;;;;;0.50;0.40;;;7.40;99.90;;;;;;5072326;28;20720;-83
2024/03/05 06:37:44;;;;;;;0.50;0.40;;;7.40;99.90;;;;;;5071824;28;20682;-82
2024/03/05 06:40:13;;;;;;;0.50;0.40;;;7.40;99.90;;;;;;5066369;28;20215;-82
2024/03/05 06:42:41;;;;;;;0.50;0.40;;;7.50;99.90;;;;;;5056816;28;20213;-82
2024/03/05 06:45:09;;;;;;;0.50;0.40;;;7.50;99.90;;;;;;5075606;28;20194;-82
2024/03/05 06:47:39;;;;;;;0.50;0.40;;;7.50;99.90;;;;;;5078477;28;20218;-81
2024/03/05 06:50:10;;;;;;;0.50;0.40;;;7.60;99.90;;;;;;5073610;28;20191;-80
2024/03/05 06:58:07;;;;;;;0.50;0.40;;;7.70;99.90;;;;;;5077511;28;20213;-79
2024/03/05 07:00:35;;;;;;;0.50;0.40;;;7.70;99.90;;;;;;5077543;28;20603;-80
2024/03/05 07:03:04;;;;;;;0.60;0.60;;;7.80;99.90;;;;;;5075981;28;20195;-79
2024/03/05 07:05:32;;;;;;;0.50;0.40;;;7.80;99.90;;;;;;5075911;28;20208;-80
2024/03/05 07:08:00;;;;;;;0.50;0.40;;;7.80;99.90;;;;;;5077892;28;20211;-80
2024/03/05 07:10:28;;;;;;;0.50;0.40;;;7.90;99.90;;;;;;5076633;28;20214;-79
2024/03/05 07:12:56;;;;;;;0.50;0.40;;;8.00;99.90;;;;;;5075662;28;20201;-80
2024/03/05 07:15:23;;;;;;;1.85;0.93;;;8.00;99.90;;;;;;5075205;28;20569;-79
2024/03/05 07:17:50;;;;;;;0.50;0.50;;;8.00;99.90;;;;;;5074824;28;20643;-79
2024/03/05 07:20:24;;;;;;;0.50;0.50;;;8.00;99.90;;;;;;5074447;28;20210;-80
2024/03/05 07:22:52;;;;;;;0.50;0.40;;;8.10;99.90;;;;;;5075517;28;20194;-79
2024/03/05 07:25:19;;;;;;;2.55;1.20;;;8.20;99.90;;;;;;5074786;28;20623;-80
2024/03/05 07:27:51;;;;;;;0.50;0.40;;;8.20;99.90;;;;;;5073492;28;20585;-80
2024/03/05 07:30:21;;;;;;;0.50;0.40;;;8.30;99.90;;;;;;5075576;28;20734;-80
2024/03/05 07:32:48;;;;;;;0.50;0.40;;;8.30;99.90;;;;;;5079264;28;20557;-80
2024/03/05 07:35:17;;;;;;;1.77;1.67;;;8.30;99.90;;;;;;5077700;28;20205;-81
2024/03/05 07:37:46;;;;;;;0.93;0.93;;;8.30;99.90;;;;;;5077431;28;20222;-81
2024/03/05 07:40:17;;;;;;;0.50;0.40;;;8.40;99.90;;;;;;5077115;28;20305;-81
2024/03/05 07:42:51;;;;;;;0.50;0.40;;;8.40;99.90;;;;;;5077088;28;20657;-81
2024/03/05 07:45:19;;;;;;;0.70;0.70;;;8.50;99.90;;;;;;5081996;28;20733;-82
2024/03/05 07:47:47;;;;;;;0.50;0.40;;;8.50;99.90;;;;;;5081743;28;20636;-82
2024/03/05 07:50:15;;;;;;;0.50;0.40;;;8.50;99.90;;;;;;5082707;28;20193;-82
2024/03/05 07:52:44;;;;;;;0.50;0.40;;;8.60;99.90;;;;;;5083323;28;20195;-81
2024/03/05 07:55:13;;;;;;;0.50;0.40;;;8.60;99.90;;;;;;5082883;28;20848;-82
2024/03/05 07:57:40;;;;;;;0.50;0.40;;;8.70;99.90;;;;;;5083067;28;20236;-81
2024/03/05 08:00:12;;;;;;;0.50;0.40;;;8.80;99.90;;;;;;5082695;28;20210;-81
2024/03/05 08:02:41;;;;;;;0.50;0.40;;;8.80;99.90;;;;;;5083692;28;20233;-81
2024/03/05 08:05:08;;;;;;;0.50;0.40;;;8.80;99.90;;;;;;5082356;28;20194;-81
2024/03/05 08:07:36;;;;;;;0.50;0.40;;;8.90;99.90;;;;;;5082811;28;20222;-82
2024/03/05 08:10:06;;;;;;;0.50;0.40;;;9.00;99.90;;;;;;5082641;28;20596;-81
2024/03/05 08:12:34;;;;;;;0.50;0.40;;;9.00;99.90;;;;;;5082441;28;20213;-81
2024/03/05 08:15:01;;;;;;;0.60;0.60;;;9.00;99.90;;;;;;5083360;28;20244;-82
2024/03/05 08:17:29;;;;;;;7.20;2.50;;;9.00;99.90;;;;;;5083655;28;20719;-81
2024/03/05 08:19:59;;;;;;;9.60;2.47;;;9.00;99.90;;;;;;5083761;28;20483;-81
2024/03/05 08:22:26;;;;;;;0.50;0.50;;;8.90;99.90;;;;;;5082888;28;20437;-81
2024/03/05 08:24:53;;;;;;;20.60;19.15;;;8.90;99.90;;;;;;5083750;28;20264;-79
2024/03/05 08:27:21;;;;;;;0.50;0.40;;;8.80;99.90;;;;;;5083500;28;20218;-80
2024/03/05 08:29:50;;;;;;;0.50;0.40;;;8.80;99.90;;;;;;5081414;28;20194;-81
2024/03/05 08:32:17;;;;;;;0.50;0.40;;;8.80;99.90;;;;;;5081190;28;20266;-79
2024/03/05 08:34:45;;;;;;;0.50;0.40;;;8.80;99.90;;;;;;5081560;28;20448;-80
2024/03/05 08:37:15;;;;;;;0.70;0.70;;;8.90;99.90;;;;;;5081372;28;20222;-81
2024/03/05 08:39:42;;;;;;;0.50;0.40;;;8.90;99.90;;;;;;5081201;28;20232;-81
2024/03/05 08:42:09;;;;;;;0.50;0.40;;;9.00;99.90;;;;;;5080630;28;20206;-81
2024/03/05 08:44:36;;;;;;;0.60;0.53;;;9.10;99.90;;;;;;5080355;28;20202;-81
2024/03/05 08:47:03;;;;;;;5.55;2.28;;;9.30;99.90;;;;;;5082303;28;20459;-81
2024/03/05 08:49:30;;;;;;;2.90;2.70;;;9.20;99.90;;;;;;5082067;28;20197;-81
2024/03/05 08:52:01;;;;;;;4.45;4.13;;;9.30;99.90;;;;;;5081462;28;20221;-81
2024/03/05 08:54:30;;;;;;;1.13;1.13;;;9.40;99.90;;;;;;5080009;28;20575;-81
2024/03/05 08:56:58;;;;;;;13.20;6.20;;;9.60;99.90;;;;;;5079229;28;20208;-80
2024/03/05 08:59:25;;;;;;;5.20;3.60;;;9.60;99.90;;;;;;5079167;28;20245;-80
2024/03/05 09:01:53;;;;;;;40.40;10.43;;;9.40;99.90;;;;;;5079975;28;20220;-81
2024/03/05 09:04:23;;;;;;;31.33;9.57;;;9.40;99.90;;;;;;5079997;28;20266;-81
2024/03/05 09:06:52;;;;;;;2.58;2.03;;;9.30;99.90;;;;;;5080354;28;20205;-82
2024/03/05 09:09:20;;;;;;;9.05;4.05;;;9.30;99.90;;;;;;5078932;28;20194;-81
2024/03/05 09:11:47;;;;;;;7.53;2.40;;;9.30;99.90;;;;;;5079853;28;20190;-81
2024/03/05 09:14:14;;;;;;;29.43;6.90;;;9.40;99.90;;;;;;5082177;28;20445;-82
2024/03/05 09:16:42;;;;;;;7.65;4.43;;;9.40;99.90;;;;;;5081374;28;20444;-81
2024/03/05 09:19:10;;;;;;;21.63;10.87;;;9.30;99.90;;;;;;5080237;28;20198;-81
2024/03/05 09:21:37;;;;;;;15.70;6.43;;;9.40;99.90;;;;;;5079968;28;20436;-82
2024/03/05 09:24:06;;;;;;;2.25;1.83;;;9.40;99.90;;;;;;5079932;28;20199;-80
2024/03/05 09:26:35;;;;;;;6.63;3.60;;;9.50;99.90;;;;;;5077348;28;20297;-82
2024/03/05 09:29:02;;;;;;;9.95;6.60;;;9.60;99.90;;;;;;5078196;28;20467;-80
2024/03/05 09:31:30;;;;;;;1.73;1.63;;;9.70;99.90;;;;;;5078747;28;20194;-79
2024/03/05 09:33:57;;;;;;;43.20;16.63;;;9.70;99.90;;;;;;5080660;28;20912;-80
2024/03/05 09:36:24;;;;;;;33.03;12.33;;;9.70;99.90;;;;;;5081359;28;20220;-81
2024/03/05 09:38:51;;;;;;;3.03;2.65;;;9.70;99.90;;;;;;5078889;28;20457;-80
2024/03/05 09:41:18;;;;;;;19.05;8.82;;;9.70;99.90;;;;;;5078756;28;20916;-81
2024/03/05 09:43:47;;;;;;;18.10;10.03;;;9.60;99.90;;;;;;5077791;28;20194;-82
2024/03/05 09:46:15;;;;;;;16.30;8.17;;;9.60;99.90;;;;;;5078133;28;21114;-81
2024/03/05 09:48:43;;;;;;;8.80;6.70;;;9.70;99.90;;;;;;5076724;28;20460;-81
2024/03/05 09:51:12;;;;;;;8.90;4.63;;;9.60;99.90;;;;;;5077502;28;20429;-81
2024/03/05 09:53:39;;;;;;;4.73;4.27;;;9.60;99.90;;;;;;5076884;28;20440;-80
2024/03/05 09:56:07;;;;;;;10.50;6.20;;;9.60;99.90;;;;;;5078175;28;20493;-81
2024/03/05 09:58:35;;;;;;;10.23;9.20;;;9.60;99.90;;;;;;5076185;28;20457;-80
2024/03/05 10:01:05;;;;;;;15.63;7.07;;;9.60;99.90;;;;;;5075164;28;20222;-80
2024/03/05 10:03:33;;;;;;;3.58;3.25;;;9.70;99.90;;;;;;5075624;28;20301;-80
2024/03/05 10:06:01;;;;;;;11.60;5.90;;;9.70;99.90;;;;;;5075840;28;20300;-81
2024/03/05 10:08:28;;;;;;;9.00;7.87;;;9.80;99.90;;;;;;5074046;28;20464;-81
2024/03/05 10:11:00;;;;;;;21.27;8.70;;;9.80;99.90;;;;;;5075780;28;20523;-81
2024/03/05 10:13:31;;;;;;;13.03;7.20;;;9.90;99.90;;;;;;5073995;28;20498;-81
2024/03/05 10:16:14;;;;;;;1.63;1.53;;;9.80;99.90;;;;;;5073552;28;20439;-80
2024/03/05 10:18:41;;;;;;;11.03;4.70;;;9.80;99.90;;;;;;5073437;28;20872;-79
2024/03/05 10:21:20;;;;;;;17.23;12.03;;;9.70;99.90;;;;;;5076839;28;20468;-81
2024/03/05 10:23:49;;;;;;;5.33;3.87;;;9.70;99.90;;;;;;5081111;28;20966;-81
2024/03/05 10:26:20;;;;;;;5.65;3.90;;;9.70;99.90;;;;;;5080044;28;20450;-80
2024/03/05 10:28:50;;;;;;;19.17;8.30;;;9.70;99.90;;;;;;5079344;28;20211;-81
2024/03/05 10:31:23;;;;;;;3.30;3.10;;;9.70;99.90;;;;;;5079590;28;20525;-81
2024/03/05 10:33:53;;;;;;;2.20;1.20;;;9.60;99.90;;;;;;5080497;28;20437;-81
2024/03/05 10:36:29;;;;;;;18.25;8.70;;;9.60;99.90;;;;;;5078563;28;20463;-81
2024/03/05 10:38:58;;;;;;;2.80;1.50;;;9.60;99.90;;;;;;5079792;28;20210;-81
2024/03/05 10:41:29;;;;;;;1.13;1.10;;;9.60;99.90;;;;;;5080157;28;20476;-79
2024/03/05 10:44:00;;;;;;;2.93;2.73;;;9.60;99.90;;;;;;5080408;28;20936;-80
2024/03/05 10:46:30;;;;;;;12.97;5.13;;;9.50;99.90;;;;;;5080215;28;20815;-81
2024/03/05 10:48:58;;;;;;;1.17;1.02;;;9.60;99.90;;;;;;5080915;28;20506;-80
2024/03/05 10:51:29;;;;;;;15.10;8.10;;;9.50;99.90;;;;;;5079839;28;20221;-80
2024/03/05 10:54:00;;;;;;;2.43;2.20;;;9.50;99.90;;;;;;5079871;28;20429;-80
2024/03/05 10:56:28;;;;;;;7.13;6.45;;;9.50;99.90;;;;;;5080660;28;20437;-80
2024/03/05 11:01:41;;;;;;;2.58;2.15;;;9.30;99.90;;;;;;5073736;28;20476;-82
2024/03/05 11:04:14;;;;;;;12.13;5.25;;;9.30;99.90;;;;;;5074264;28;20286;-82
2024/03/05 11:06:52;;;;;;;1.50;1.40;;;9.20;99.90;;;;;;5069534;28;20202;-82
2024/03/05 11:09:20;;;;;;;1.00;0.90;;;9.20;99.90;;;;;;5069076;28;20481;-81
2024/03/05 11:11:51;;;;;;;10.40;7.97;;;9.20;99.90;;;;;;5083841;28;20202;-82
2024/03/05 11:14:21;;;;;;;15.23;5.82;;;9.20;99.90;;;;;;5092979;28;20441;-82
2024/03/05 11:16:57;;;;;;;3.30;3.03;;;9.20;99.90;;;;;;5093575;28;20198;-81
2024/03/05 11:19:28;;;;;;;0.50;0.40;;;9.20;99.90;;;;;;5083716;28;20424;-80
2024/03/05 11:21:56;;;;;;;7.97;6.10;;;9.10;99.90;;;;;;5079256;28;20267;-82
2024/03/05 11:24:24;;;;;;;2.78;2.63;;;9.10;99.90;;;;;;5079730;28;20190;-82
2024/03/05 11:27:01;;;;;;;7.32;4.43;;;9.10;99.90;;;;;;5081723;28;20204;-81
2024/03/05 11:29:37;;;;;;;36.67;8.82;;;9.10;99.90;;;;;;5079992;28;20201;-82
2024/03/05 11:32:05;;;;;;;7.82;4.65;;;9.10;99.90;;;;;;5061925;28;20194;-82
2024/03/05 11:34:35;;;;;;;1.05;0.95;;;9.00;99.90;;;;;;5073975;28;20289;-82
2024/03/05 11:37:08;;;;;;;4.75;4.45;;;9.00;99.90;;;;;;5082700;28;20242;-80
2024/03/05 11:39:41;;;;;;;13.18;1.85;;;9.00;99.90;;;;;;5083062;28;20546;-81
2024/03/05 11:42:16;;;;;;;4.03;1.85;;;9.10;99.90;;;;;;5073091;28;20222;-82
2024/03/05 11:45:32;;;;;;;18.83;5.25;;;9.00;99.90;;;;;;5065791;28;20202;-81
2024/03/05 11:48:06;;;;;;;7.75;2.70;;;9.00;99.90;;;;;;5076956;28;20686;-83
2024/03/05 11:50:32;;;;;;;9.75;4.75;;;9.00;99.90;;;;;;5071835;28;20194;-82
2024/03/05 11:53:01;;;;;;;1.67;0.75;;;9.00;99.90;;;;;;5076111;28;20209;-82
2024/03/05 11:55:28;;;;;;;4.65;1.85;;;9.00;99.90;;;;;;5059785;28;20610;-81
2024/03/05 11:57:58;;;;;;;6.35;5.85;;;9.10;99.90;;;;;;5073096;28;20641;-79
2024/03/05 12:00:26;;;;;;;8.40;3.58;;;9.10;99.90;;;;;;5075193;28;20221;-79
2024/03/05 12:02:53;;;;;;;4.70;4.38;;;9.00;99.90;;;;;;5075092;28;20198;-80
2024/03/05 12:05:22;;;;;;;11.35;6.85;;;8.90;99.90;;;;;;5076039;28;20628;-81
2024/03/05 12:07:58;;;;;;;15.45;7.05;;;8.90;99.90;;;;;;5073971;28;20214;-79
2024/03/05 12:10:27;;;;;;;8.75;4.60;;;8.90;99.90;;;;;;5073255;28;20195;-80
2024/03/05 12:12:54;;;;;;;3.97;3.65;;;8.90;99.90;;;;;;5072553;28;20198;-80
2024/03/05 12:15:23;;;;;;;2.95;2.75;;;8.80;99.90;;;;;;5072516;28;20198;-80
2024/03/05 12:17:51;;;;;;;2.42;2.05;;;8.80;99.90;;;;;;5072888;28;20305;-80
2024/03/05 12:20:21;;;;;;;6.20;4.07;;;8.80;99.90;;;;;;5074427;28;20561;-80
2024/03/05 12:22:51;;;;;;;5.93;5.40;;;8.80;99.90;;;;;;5075793;28;20202;-81
2024/03/05 12:25:19;;;;;;;1.60;1.13;;;8.80;99.90;;;;;;5079610;28;20205;-80
2024/03/05 12:27:50;;;;;;;24.75;2.45;;;8.80;99.90;;;;;;5078431;28;20617;-80
2024/03/05 12:30:17;;;;;;;3.35;3.05;;;8.80;99.90;;;;;;5080774;28;20199;-82
2024/03/05 12:32:46;;;;;;;1.10;1.10;;;8.60;99.90;;;;;;5082737;28;20190;-81
2024/03/05 12:35:14;;;;;;;0.60;0.60;;;8.60;99.90;;;;;;5080611;28;20201;-81
2024/03/05 12:37:42;;;;;;;2.05;1.95;;;8.60;99.90;;;;;;5081311;28;20548;-82
2024/03/05 12:40:15;;;;;;;4.00;3.15;;;8.50;99.90;;;;;;5080056;28;20242;-82
2024/03/05 12:42:44;;;;;;;2.88;1.30;;;8.40;99.90;;;;;;5081675;28;20202;-81
2024/03/05 12:45:14;;;;;;;0.50;0.40;;;8.40;99.90;;;;;;5079806;28;20199;-82
2024/03/05 12:47:41;;;;;;;0.93;0.93;;;8.40;99.90;;;;;;5080416;28;20467;-80
2024/03/05 12:50:11;;;;;;;0.50;0.50;;;8.40;99.90;;;;;;5080782;28;20198;-81
2024/03/05 12:52:38;;;;;;;2.25;1.80;;;8.50;99.90;;;;;;5081002;28;20190;-81
2024/03/05 12:55:09;;;;;;;0.65;0.65;;;8.40;99.90;;;;;;5081079;28;20209;-81
2024/03/05 12:57:38;;;;;;;0.50;0.40;;;8.30;99.90;;;;;;5080713;28;20356;-81
2024/03/05 13:00:15;;;;;;;0.93;0.93;;;8.30;99.90;;;;;;5080870;28;20577;-81
2024/03/05 13:02:42;;;;;;;0.70;0.70;;;8.40;99.90;;;;;;5080405;28;20194;-80
2024/03/05 13:05:09;;;;;;;4.53;1.38;;;8.30;99.90;;;;;;5080908;28;20577;-82
2024/03/05 13:07:36;;;;;;;4.20;1.42;;;8.40;99.90;;;;;;5080733;28;20623;-82
2024/03/05 13:10:10;;;;;;;2.55;1.23;;;8.40;99.90;;;;;;5079806;28;20205;-82